Time;durP1;ratioP1;P1;durP2;ratioP2;P2;SDS_P1;SDS_P2;PMS_P1;PMS_P2;Temp;Humidity;BMP_temperature;BMP_pressure;BME280_temperature;BME280_humidity;BME280_pressure;Samples;Min_cycle;Max_cycle;Signal;HPM_P1;HPM_P2
2023/04/12 05:09:54;;;;;;;5.25;1.40;;;;;;;6.58;100.00;99719.63;5008250;28;20050;-96
2023/04/12 05:15:58;;;;;;;4.35;1.58;;;;;;;6.61;100.00;99724.44;5486444;23;20073;-95
2023/04/12 05:25:05;;;;;;;7.88;3.00;;;;;;;6.74;100.00;99721.34;5349196;23;20069;-95
2023/04/12 05:28:18;;;;;;;2.65;1.63;;;;;;;6.76;100.00;99726.38;5016851;28;20223;-96
2023/04/12 05:30:43;;;;;;;6.18;2.70;;;;;;;6.73;100.00;99714.41;4997279;28;20031;-93
2023/04/12 05:33:09;;;;;;;4.35;2.33;;;;;;;6.79;100.00;99713.34;4991809;28;20026;-93
2023/04/12 05:35:34;;;;;;;10.03;4.07;;;;;;;6.79;100.00;99707.22;4997309;28;20549;-94
2023/04/12 05:38:00;;;;;;;5.47;2.53;;;;;;;6.81;100.00;99716.56;5004870;28;20021;-94
2023/04/12 05:40:25;;;;;;;7.30;1.87;;;;;;;6.82;100.00;99718.16;5013513;28;20098;-96
2023/04/12 05:42:52;;;;;;;4.00;1.43;;;;;;;6.83;100.00;99713.66;5001427;28;20018;-96
2023/04/12 05:45:18;;;;;;;6.53;2.60;;;;;;;6.87;100.00;99719.25;4990596;28;20030;-96
2023/04/12 05:47:43;;;;;;;3.93;2.50;;;;;;;6.88;100.00;99716.31;4998198;28;20078;-96
2023/04/12 05:50:09;;;;;;;8.73;3.03;;;;;;;6.91;100.00;99707.03;4993836;28;20042;-96
2023/04/12 05:52:36;;;;;;;10.40;4.65;;;;;;;6.90;100.00;99706.19;4994477;28;20034;-96
2023/04/12 05:55:02;;;;;;;4.70;1.70;;;;;;;6.92;100.00;99716.63;4983727;28;20081;-95
2023/04/12 05:57:27;;;;;;;5.63;2.50;;;;;;;6.95;100.00;99716.06;4985262;28;20027;-96
2023/04/12 05:59:53;;;;;;;6.60;2.13;;;;;;;6.94;100.00;99701.16;5002461;28;20478;-93
2023/04/12 06:02:19;;;;;;;7.15;2.50;;;;;;;6.94;100.00;99707.28;4996653;28;20456;-94
2023/04/12 06:04:46;;;;;;;6.25;1.73;;;;;;;6.95;100.00;99695.56;5028113;23;20047;-94
2023/04/12 06:07:12;;;;;;;5.13;2.23;;;;;;;6.98;100.00;99707.56;4977618;28;20279;-93
2023/04/12 06:10:16;;;;;;;8.10;1.90;;;;;;;6.90;100.00;99679.56;4980299;28;20113;-95
2023/04/12 06:12:41;;;;;;;3.67;1.70;;;;;;;7.07;100.00;99700.69;4942985;29;20036;-95
2023/04/12 06:15:07;;;;;;;3.90;1.70;;;;;;;7.10;100.00;99702.81;4991381;28;20014;-95
2023/04/12 06:17:44;;;;;;;4.03;1.83;;;;;;;7.12;100.00;99705.22;5006847;28;20270;-95
2023/04/12 06:20:11;;;;;;;4.55;1.58;;;;;;;7.09;100.00;99684.44;4997320;28;20761;-95
2023/04/12 06:22:37;;;;;;;3.47;1.50;;;;;;;7.14;100.00;99692.44;4974519;28;20117;-95
2023/04/12 06:25:02;;;;;;;3.88;1.63;;;;;;;7.17;100.00;99699.09;4996301;28;20461;-96
2023/04/12 06:27:28;;;;;;;5.63;1.70;;;;;;;7.18;100.00;99685.53;4997112;28;20029;-95
2023/04/12 06:29:53;;;;;;;4.70;1.48;;;;;;;7.20;100.00;99687.91;4996242;28;20042;-95
2023/04/12 06:32:19;;;;;;;5.20;1.73;;;;;;;7.24;100.00;99689.00;4995350;28;20030;-95
2023/04/12 06:34:44;;;;;;;4.63;1.77;;;;;;;7.28;100.00;99674.09;4996373;28;20124;-93
2023/04/12 06:37:10;;;;;;;3.07;1.80;;;;;;;7.31;100.00;99684.19;4997930;28;20028;-95
2023/04/12 06:39:36;;;;;;;3.95;1.90;;;;;;;7.35;100.00;99679.16;4994555;28;20521;-96
2023/04/12 06:42:02;;;;;;;2.33;1.50;;;;;;;7.35;100.00;99677.28;4979952;28;20038;-95
2023/04/12 06:44:27;;;;;;;3.30;1.67;;;;;;;7.36;100.00;99681.56;4995186;28;20034;-93
2023/04/12 06:46:52;;;;;;;4.17;1.37;;;;;;;7.40;100.00;99676.50;4995772;28;20030;-93
2023/04/12 06:49:18;;;;;;;4.00;1.60;;;;;;;7.40;100.00;99674.63;4998224;28;20033;-91
2023/04/12 06:51:44;;;;;;;4.40;1.97;;;;;;;7.43;100.00;99673.28;5000775;28;20372;-93
2023/04/12 06:54:10;;;;;;;3.35;2.00;;;;;;;7.46;100.00;99674.66;5002037;28;20030;-92
2023/04/12 06:56:37;;;;;;;11.30;2.10;;;;;;;7.47;100.00;99676.25;5005892;28;20099;-91
2023/04/12 06:59:02;;;;;;;3.70;2.33;;;;;;;7.49;100.00;99682.09;5009610;28;20049;-92
2023/04/12 07:01:27;;;;;;;7.57;2.40;;;;;;;7.50;100.00;99687.19;5013739;28;20505;-92
2023/04/12 07:03:54;;;;;;;8.10;2.30;;;;;;;7.53;100.00;99685.84;5011894;28;20030;-93
2023/04/12 07:06:20;;;;;;;5.25;2.78;;;;;;;7.57;100.00;99681.59;5000017;28;20022;-89
2023/04/12 07:15:23;;;;;;;3.95;2.70;;;;;;;7.67;100.00;99684.25;4998992;28;20096;-90
2023/04/12 07:18:01;;;;;;;17.35;3.97;;;;;;;7.72;100.00;99691.47;5002656;28;20100;-95
2023/04/12 07:21:46;;;;;;;15.23;3.70;;;;;;;7.78;100.00;99684.25;5002018;28;20057;-95
2023/04/12 07:24:39;;;;;;;3.65;3.20;;;;;;;7.78;100.00;99689.59;4988837;28;20049;-92
2023/04/12 07:27:05;;;;;;;5.28;3.20;;;;;;;7.71;100.00;99666.66;5014079;28;20034;-93
2023/04/12 07:32:07;;;;;;;7.55;3.45;;;;;;;7.92;100.00;99671.97;5060166;23;20054;-94
2023/04/12 07:35:22;;;;;;;8.32;3.90;;;;;;;8.17;100.00;99697.03;5001917;28;20030;-92
2023/04/12 07:37:48;;;;;;;5.82;3.50;;;;;;;8.10;100.00;99665.31;4963137;28;20042;-90
2023/04/12 07:40:14;;;;;;;8.10;4.00;;;;;;;8.25;100.00;99677.00;4993427;28;20024;-90
2023/04/12 07:43:08;;;;;;;8.43;3.60;;;;;;;8.43;100.00;99675.63;5004616;28;20111;-91
2023/04/12 07:45:36;;;;;;;6.23;3.63;;;;;;;8.52;100.00;99679.38;5013495;28;20022;-91
2023/04/12 08:19:42;;;;;;;8.73;2.67;;;;;;;9.07;100.00;99697.31;4932741;29;20487;-87
2023/04/12 08:29:48;;;;;;;11.32;2.78;;;;;;;8.89;100.00;99712.06;5012180;28;20099;-88
2023/04/12 08:32:26;;;;;;;5.93;2.50;;;;;;;8.83;100.00;99689.94;5011869;28;20030;-89
2023/04/12 08:35:05;;;;;;;8.88;3.25;;;;;;;8.76;100.00;99686.78;5125057;23;20046;-89
2023/04/12 08:37:34;;;;;;;8.32;3.33;;;;;;;8.73;100.00;99687.31;4992583;28;20054;-88
2023/04/12 08:40:03;;;;;;;7.90;3.00;;;;;;;8.66;100.00;99687.63;4991996;28;20034;-89
2023/04/12 08:42:30;;;;;;;12.68;2.65;;;;;;;8.76;100.00;99702.81;4992732;28;20069;-89
2023/04/12 08:44:55;;;;;;;10.73;3.00;;;;;;;8.86;100.00;99692.06;4978889;28;20042;-88
2023/04/12 08:47:21;;;;;;;10.27;3.43;;;;;;;9.12;100.00;99689.28;4972730;28;20654;-89
2023/04/12 08:49:46;;;;;;;9.60;3.40;;;;;;;9.37;100.00;99682.97;4971704;28;20070;-89
2023/04/12 08:52:12;;;;;;;9.43;3.20;;;;;;;9.68;100.00;99685.44;4978803;28;20035;-89
2023/04/12 08:54:37;;;;;;;12.60;3.20;;;;;;;9.87;100.00;99682.06;4991638;28;20035;-89
2023/04/12 08:57:06;;;;;;;9.20;3.30;;;;;;;10.07;100.00;99678.41;4991653;28;20034;-88
2023/04/12 08:59:35;;;;;;;11.38;3.75;;;;;;;10.31;100.00;99693.69;4992034;28;20026;-88
2023/04/12 09:02:01;;;;;;;7.65;3.92;;;;;;;10.52;100.00;99699.66;4993572;28;20110;-88
2023/04/12 09:04:26;;;;;;;12.23;3.37;;;;;;;10.77;100.00;99686.28;4992818;28;20077;-88
2023/04/12 09:06:52;;;;;;;12.37;4.27;;;;;;;11.02;100.00;99688.63;4988432;28;20084;-89
2023/04/12 09:09:17;;;;;;;12.07;4.97;;;;;;;11.16;100.00;99695.94;4991668;28;20022;-88
2023/04/12 09:11:42;;;;;;;12.90;5.30;;;;;;;11.30;100.00;99686.09;4990675;28;20105;-88
2023/04/12 09:14:22;;;;;;;13.13;4.97;;;;;;;11.34;100.00;99672.91;4994614;28;20113;-88
2023/04/12 09:16:48;;;;;;;19.85;5.00;;;;;;;11.33;100.00;99669.41;4995933;28;20107;-89
2023/04/12 09:19:14;;;;;;;12.90;4.40;;;;;;;11.30;100.00;99672.69;4995538;28;20607;-88
2023/04/12 09:21:55;;;;;;;24.00;4.87;;;;;;;11.54;100.00;99666.41;4994801;28;20041;-88
2023/04/12 09:24:23;;;;;;;17.30;5.43;;;;;;;11.70;100.00;99675.03;4991039;28;20029;-88
2023/04/12 09:27:09;;;;;;;12.55;4.55;;;;;;;11.70;100.00;99669.66;4990535;28;20030;-87
2023/04/12 09:29:35;;;;;;;11.90;4.55;;;;;;;11.75;100.00;99676.81;4994964;28;20084;-89
2023/04/12 09:32:05;;;;;;;16.88;5.05;;;;;;;11.84;100.00;99677.75;4994463;28;20506;-88
2023/04/12 09:34:33;;;;;;;15.30;4.60;;;;;;;11.88;100.00;99681.44;4993711;28;20038;-88
2023/04/12 09:37:10;;;;;;;13.87;4.90;;;;;;;12.16;100.00;99670.78;4994513;28;20293;-88
2023/04/12 09:39:36;;;;;;;13.90;4.82;;;;;;;12.64;100.00;99674.19;4995318;28;20071;-88
2023/04/12 09:42:08;;;;;;;17.67;5.33;;;;;;;13.07;100.00;99687.28;4994749;28;20244;-88
2023/04/12 09:44:34;;;;;;;13.57;4.70;;;;;;;13.09;100.00;99681.56;4994073;28;20034;-88
2023/04/12 09:47:01;;;;;;;14.82;4.53;;;;;;;12.75;100.00;99672.09;4994613;28;20173;-88
2023/04/12 09:49:40;;;;;;;20.63;4.97;;;;;;;12.49;100.00;99665.34;4994928;28;20565;-89
2023/04/12 09:52:09;;;;;;;18.02;4.72;;;;;;;12.47;100.00;99662.16;4980661;28;20931;-88
2023/04/12 09:54:45;;;;;;;16.67;4.63;;;;;;;12.67;100.00;99660.97;4982702;28;20558;-89
2023/04/12 09:57:12;;;;;;;20.53;4.53;;;;;;;13.01;100.00;99656.19;4995631;28;20039;-88
2023/04/12 09:59:40;;;;;;;19.63;4.63;;;;;;;13.24;100.00;99656.25;4993900;28;20031;-88
2023/04/12 10:02:14;;;;;;;14.60;4.07;;;;;;;13.40;100.00;99657.50;4994681;28;20026;-88
2023/04/12 10:04:41;;;;;;;17.80;3.90;;;;;;;13.54;100.00;99649.38;4997209;28;20038;-88
2023/04/12 10:07:07;;;;;;;19.15;3.22;;;;;;;13.53;96.33;99660.44;4995639;28;20509;-88
2023/04/12 10:09:33;;;;;;;14.80;2.90;;;;;;;13.19;97.63;99638.34;4994340;28;20042;-89
2023/04/12 10:12:01;;;;;;;18.27;3.50;;;;;;;13.09;100.00;99646.63;4992452;28;20843;-89
2023/04/12 10:14:30;;;;;;;17.75;3.15;;;;;;;12.92;100.00;99655.34;4994968;28;20034;-89
2023/04/12 10:16:58;;;;;;;16.38;3.10;;;;;;;12.80;100.00;99656.63;4995103;28;20033;-88
2023/04/12 10:19:28;;;;;;;18.20;3.28;;;;;;;12.62;100.00;99668.31;4993767;28;20497;-89
2023/04/12 10:21:56;;;;;;;19.88;3.92;;;;;;;12.26;100.00;99669.81;4994065;28;20500;-88
2023/04/12 10:24:23;;;;;;;16.98;3.70;;;;;;;11.96;100.00;99672.72;4994418;28;20018;-87
2023/04/12 10:26:50;;;;;;;19.85;4.15;;;;;;;11.86;100.00;99656.78;4990745;28;20500;-89
2023/04/12 10:29:24;;;;;;;16.80;3.67;;;;;;;11.81;100.00;99659.56;4975561;28;20058;-89
2023/04/12 10:31:49;;;;;;;15.60;2.97;;;;;;;11.82;100.00;99658.47;4983952;28;20019;-89
2023/04/12 10:34:15;;;;;;;15.37;3.00;;;;;;;11.93;100.00;99662.56;4994552;28;20852;-90
2023/04/12 10:37:00;;;;;;;15.02;3.08;;;;;;;12.14;100.00;99667.59;4995380;28;20025;-95
2023/04/12 10:39:43;;;;;;;18.13;3.40;;;;;;;12.12;99.81;99664.41;4996230;28;20034;-88
2023/04/12 10:42:30;;;;;;;17.52;2.90;;;;;;;12.28;100.00;99673.00;4997725;28;20026;-88
2023/04/12 10:52:11;;;;;;;12.85;3.25;;;;;;;11.91;97.97;99674.69;4973199;28;20474;-89
2023/04/12 11:00:14;;;;;;;13.77;2.60;;;;;;;10.81;100.00;99692.63;5033493;23;20045;-89
2023/04/12 11:03:06;;;;;;;17.17;2.75;;;;;;;10.30;100.00;99684.06;5004923;28;20035;-90
2023/04/12 11:05:55;;;;;;;20.47;2.90;;;;;;;9.93;100.00;99683.63;4996229;28;20516;-90
2023/04/12 11:08:22;;;;;;;16.40;2.72;;;;;;;9.68;100.00;99685.44;5012414;28;20040;-91
2023/04/12 11:10:49;;;;;;;13.15;2.72;;;;;;;9.82;100.00;99677.56;5030680;28;20053;-89
2023/04/12 11:13:15;;;;;;;17.88;3.63;;;;;;;10.04;100.00;99678.97;5017774;28;20101;-89
2023/04/12 11:15:40;;;;;;;18.95;3.13;;;;;;;10.36;100.00;99679.44;5011903;28;20116;-89
2023/04/12 11:18:05;;;;;;;28.60;3.80;;;;;;;10.60;100.00;99693.69;5002667;28;20433;-90
2023/04/12 11:20:32;;;;;;;16.53;3.73;;;;;;;10.64;100.00;99693.91;4994530;28;20038;-90
2023/04/12 11:26:24;;;;;;;14.60;3.63;;;;;;;10.60;100.00;99698.22;4954470;29;20411;-89
2023/04/12 11:32:16;;;;;;;20.77;4.72;;;;;;;10.88;100.00;99680.47;4861131;29;20245;-89
2023/04/12 11:34:46;;;;;;;19.33;4.50;;;;;;;11.06;100.00;99678.91;4862728;29;20045;-90
2023/04/12 11:37:12;;;;;;;23.65;4.95;;;;;;;11.06;100.00;99672.75;4937313;29;20039;-89
2023/04/12 11:39:40;;;;;;;19.67;4.90;;;;;;;11.19;100.00;99690.00;4935286;29;20039;-90
2023/04/12 11:42:07;;;;;;;19.48;3.70;;;;;;;11.27;100.00;99684.00;4934938;29;20408;-91
2023/04/12 11:44:33;;;;;;;17.33;3.90;;;;;;;11.52;100.00;99679.31;4937778;29;20028;-90
2023/04/12 11:47:00;;;;;;;18.83;3.70;;;;;;;12.05;100.00;99670.16;4938433;29;20286;-90
2023/04/12 11:49:26;;;;;;;17.08;4.80;;;;;;;12.50;100.00;99684.94;4918862;29;20027;-90
2023/04/12 11:52:02;;;;;;;18.50;3.47;;;;;;;12.71;100.00;99679.97;4935933;29;20043;-90
2023/04/12 11:54:28;;;;;;;18.45;3.60;;;;;;;12.96;100.00;99691.28;4933411;29;20032;-90
2023/04/12 11:56:56;;;;;;;15.13;3.08;;;;;;;13.24;100.00;99686.63;4934830;29;20034;-89
2023/04/12 11:59:21;;;;;;;18.50;3.10;;;;;;;13.44;100.00;99689.97;4935641;29;20020;-89
2023/04/12 12:01:50;;;;;;;14.73;2.70;;;;;;;13.91;100.00;99687.78;4940131;29;20482;-89
2023/04/12 12:04:16;;;;;;;13.35;3.10;;;;;;;14.17;100.00;99694.41;4938674;29;20023;-89
2023/04/12 12:06:42;;;;;;;13.55;2.78;;;;;;;13.99;99.24;99690.81;4933618;29;20031;-89
2023/04/12 12:09:07;;;;;;;17.83;3.00;;;;;;;13.81;97.92;99688.00;4916476;29;20047;-89
2023/04/12 12:11:33;;;;;;;13.82;2.70;;;;;;;13.71;97.68;99686.38;4930569;29;20066;-89
2023/04/12 12:13:58;;;;;;;14.60;2.60;;;;;;;13.40;96.35;99695.19;4934082;29;20075;-89
2023/04/12 12:16:28;;;;;;;11.60;2.30;;;;;;;12.99;97.44;99715.69;4935912;29;20023;-89
2023/04/12 12:18:55;;;;;;;16.98;2.70;;;;;;;11.55;100.00;99737.75;4935934;29;20049;-91
2023/04/12 12:21:21;;;;;;;13.23;2.80;;;;;;;10.43;100.00;99736.19;4941353;29;20471;-93
2023/04/12 12:23:47;;;;;;;9.18;3.00;;;;;;;9.50;100.00;99748.38;4945652;28;20054;-92
2023/04/12 12:26:29;;;;;;;11.85;3.20;;;;;;;8.97;100.00;99748.13;4958400;29;20035;-92
2023/04/12 12:28:56;;;;;;;15.27;3.30;;;;;;;8.55;100.00;99737.56;4936881;29;20547;-90
2023/04/12 12:31:23;;;;;;;13.30;2.90;;;;;;;8.45;100.00;99745.56;4959973;29;20024;-90
2023/04/12 12:33:53;;;;;;;20.20;3.73;;;;;;;8.28;100.00;99752.00;4966618;28;20031;-90
2023/04/12 12:36:21;;;;;;;17.60;3.73;;;;;;;8.24;100.00;99745.59;4952442;28;20302;-90
2023/04/12 12:38:52;;;;;;;18.20;3.72;;;;;;;8.18;100.00;99742.13;4953999;29;20020;-89
2023/04/12 12:41:19;;;;;;;15.85;3.42;;;;;;;8.28;100.00;99735.97;4952621;29;20517;-90
2023/04/12 12:43:50;;;;;;;17.38;4.32;;;;;;;8.52;100.00;99735.44;4953583;29;20514;-90
2023/04/12 12:46:16;;;;;;;19.30;3.88;;;;;;;9.21;100.00;99719.69;4953505;28;20038;-90
2023/04/12 12:48:42;;;;;;;15.32;4.18;;;;;;;9.90;100.00;99712.81;4957662;29;20509;-90
2023/04/12 12:51:08;;;;;;;18.88;3.88;;;;;;;10.25;100.00;99709.03;4957216;29;20027;-88
2023/04/12 12:53:38;;;;;;;15.63;3.88;;;;;;;10.48;100.00;99711.22;4957142;29;20048;-88
2023/04/12 12:56:04;;;;;;;13.75;3.30;;;;;;;10.53;100.00;99711.19;4956594;28;20035;-88
2023/04/12 12:58:30;;;;;;;15.70;3.17;;;;;;;10.50;100.00;99712.53;4959003;29;20054;-91
2023/04/12 13:00:55;;;;;;;17.27;3.30;;;;;;;10.39;100.00;99708.38;4962208;28;20046;-90
2023/04/12 13:03:22;;;;;;;16.33;2.97;;;;;;;10.50;100.00;99709.84;4955921;29;20027;-92
2023/04/12 13:05:50;;;;;;;17.40;3.10;;;;;;;10.89;100.00;99716.13;4957247;29;20050;-91
2023/04/12 13:08:16;;;;;;;9.23;2.63;;;;;;;10.88;100.00;99712.63;4946397;29;20023;-91
2023/04/12 13:10:41;;;;;;;11.27;2.83;;;;;;;10.71;100.00;99721.16;4957526;28;20023;-92
2023/04/12 13:13:07;;;;;;;12.30;2.83;;;;;;;10.62;100.00;99714.03;5167184;23;20049;-92
2023/04/12 13:15:32;;;;;;;12.10;2.57;;;;;;;10.45;100.00;99721.44;4995405;28;20062;-92
2023/04/12 13:17:57;;;;;;;15.77;3.03;;;;;;;10.36;100.00;99723.09;5003924;28;20029;-93
2023/04/12 13:20:23;;;;;;;16.27;3.03;;;;;;;10.25;100.00;99719.72;5024441;28;20085;-92
2023/04/12 13:22:50;;;;;;;9.68;3.00;;;;;;;9.92;100.00;99724.84;5005211;28;20030;-91
2023/04/12 13:25:18;;;;;;;17.92;3.55;;;;;;;9.64;100.00;99731.75;4992045;28;20085;-91
2023/04/12 13:27:43;;;;;;;20.63;3.13;;;;;;;9.45;100.00;99759.13;4995828;28;20003;-89
2023/04/12 13:30:09;;;;;;;24.57;3.60;;;;;;;9.17;100.00;99782.00;5015441;28;20274;-89
2023/04/12 13:32:34;;;;;;;11.77;1.70;;;;;;;8.47;100.00;99778.13;5014702;28;20026;-89
2023/04/12 13:35:05;;;;;;;11.00;1.43;;;;;;;7.97;100.00;99762.69;5005922;28;20030;-89
2023/04/12 13:37:32;;;;;;;6.43;1.20;;;;;;;7.63;100.00;99762.38;4992269;28;20153;-89
2023/04/12 13:39:58;;;;;;;7.82;1.17;;;;;;;7.37;100.00;99744.47;4996740;28;20030;-90
2023/04/12 13:44:59;;;;;;;13.05;1.60;;;;;;;7.34;100.00;99694.34;5351557;23;20055;-89
2023/04/12 13:47:25;;;;;;;9.10;1.42;;;;;;;7.50;100.00;99686.34;4975740;28;20031;-88
2023/04/12 13:49:51;;;;;;;6.00;1.20;;;;;;;7.81;100.00;99691.72;4976300;28;20027;-87
2023/04/12 13:52:17;;;;;;;6.57;1.20;;;;;;;8.00;100.00;99687.47;4978624;28;20837;-89
2023/04/12 13:54:42;;;;;;;6.88;1.20;;;;;;;8.41;100.00;99685.75;4978347;28;20027;-89
2023/04/12 13:57:08;;;;;;;6.77;1.30;;;;;;;8.66;100.00;99697.47;4976275;28;20023;-89
2023/04/12 13:59:34;;;;;;;7.05;1.30;;;;;;;8.76;100.00;99702.81;4957474;28;20027;-90
2023/04/12 14:02:00;;;;;;;4.90;1.03;;;;;;;9.17;100.00;99707.94;4961290;28;20028;-90
2023/04/12 14:12:39;;;;;;;;;;;;;;;;;;;;;
2023/04/12 14:15:36;;;;;;;4.13;1.40;;;;;;;10.30;100.00;99702.81;4931044;28;20356;-88
2023/04/12 14:27:20;;;;;;;3.92;1.00;;;;;;;9.10;100.00;99675.38;5036748;23;20565;-89
2023/04/12 14:29:46;;;;;;;4.55;1.40;;;;;;;8.92;100.00;99672.28;5011859;28;20061;-89
2023/04/12 14:35:18;;;;;;;4.13;1.30;;;;;;;9.00;100.00;99713.66;4924312;28;20073;-88
2023/04/12 14:38:14;;;;;;;3.23;1.30;;;;;;;9.03;100.00;99755.88;4976808;28;20138;-88
2023/04/12 14:48:00;;;;;;;1.10;0.63;;;;;;;7.30;100.00;99762.56;5007465;28;20088;-87
2023/04/12 15:01:33;;;;;;;2.60;1.30;;;;;;;7.16;100.00;99764.09;6073794;23;20252;-87
2023/04/12 15:03:59;;;;;;;2.47;1.30;;;;;;;7.13;100.00;99760.09;4992777;28;20474;-89
2023/04/12 15:06:26;;;;;;;4.23;1.60;;;;;;;7.16;100.00;99756.09;4974656;28;20046;-86
2023/04/12 15:08:53;;;;;;;2.58;2.05;;;;;;;7.17;100.00;99755.03;4986797;28;20037;-87
2023/04/12 15:11:20;;;;;;;3.55;1.40;;;;;;;7.16;100.00;99740.13;4992191;28;20410;-87
2023/04/12 15:13:48;;;;;;;3.78;1.30;;;;;;;7.16;100.00;99745.44;4992353;28;20037;-88
2023/04/12 15:16:13;;;;;;;2.95;1.13;;;;;;;7.08;100.00;99744.91;4991721;28;20034;-86
2023/04/12 15:18:40;;;;;;;2.17;1.50;;;;;;;7.07;100.00;99745.97;4991170;28;20045;-86
2023/04/12 15:21:07;;;;;;;5.53;1.10;;;;;;;7.17;100.00;99747.06;4992976;28;20317;-86
2023/04/12 15:26:20;;;;;;;1.75;1.13;;;;;;;7.19;100.00;99739.59;5242086;23;20085;-87
2023/04/12 15:29:32;;;;;;;6.18;4.45;;;;;;;7.17;100.00;99753.19;5010549;28;20052;-86
2023/04/12 15:34:50;;;;;;;3.03;2.20;;;;;;;7.28;100.00;99757.50;5204025;22;20061;-87
2023/04/12 15:38:32;;;;;;;3.75;1.77;;;;;;;7.20;100.00;99733.22;4993139;28;20054;-88
2023/04/12 15:55:54;;;;;;;;;;;;;;;;;;;;;
2023/04/12 16:12:39;;;;;;;;;;;;;;;;;;;;;
2023/04/12 16:18:45;;;;;;;4.43;2.20;;;;;;;8.70;100.00;99709.22;4929431;29;20416;-87
2023/04/12 16:28:04;;;;;;;4.95;1.80;;;;;;;8.24;100.00;99692.22;4930654;29;20046;-89
2023/04/12 16:33:59;;;;;;;5.43;2.22;;;;;;;8.47;100.00;99716.72;4931191;29;20059;-88
2023/04/12 17:09:27;;;;;;;4.47;1.90;;;;;;;8.46;100.00;99677.75;6034709;22;20030;-89
2023/04/12 17:28:40;;;;;;;3.27;1.30;;;;;;;7.87;100.00;99655.97;4906576;29;20315;-89
